createdAt,value
2018-04-11T00:02:03.614Z,99.8
2018-04-11T00:07:03.562Z,99.9
2018-04-11T00:12:03.516Z,99.9
2018-04-11T00:17:03.656Z,99.9
2018-04-11T00:22:03.407Z,99.9
2018-04-11T00:27:03.885Z,99.9
2018-04-11T00:32:03.739Z,99.7
2018-04-11T00:37:03.494Z,99.5
2018-04-11T00:42:03.917Z,99.9
2018-04-11T00:47:03.648Z,99.8
2018-04-11T00:52:03.843Z,99.8
2018-04-11T00:57:03.538Z,99.9
2018-04-11T01:02:03.431Z,99.0
2018-04-11T01:07:03.617Z,99.0
2018-04-11T01:12:03.510Z,98.6
2018-04-11T01:17:03.346Z,98.3
2018-04-11T01:22:03.812Z,98.3
2018-04-11T01:27:03.587Z,98.4
2018-04-11T01:32:03.562Z,98.5
2018-04-11T01:37:03.901Z,98.5
2018-04-11T01:42:03.721Z,98.9
2018-04-11T01:47:03.654Z,99.1
2018-04-11T01:52:03.180Z,98.7
2018-04-11T01:57:03.047Z,97.8
2018-04-11T02:02:03.949Z,97.5
2018-04-11T02:07:03.597Z,97.4
2018-04-11T02:12:03.424Z,97.3
2018-04-11T02:17:03.428Z,98.1
2018-04-11T02:22:03.618Z,97.6
2018-04-11T02:27:03.423Z,96.8
2018-04-11T02:32:03.553Z,97.0
2018-04-11T02:37:03.117Z,97.0
2018-04-11T02:42:03.201Z,97.5
2018-04-11T02:47:03.366Z,97.3
2018-04-11T02:52:03.530Z,97.3
2018-04-11T02:57:03.442Z,96.8
2018-04-11T03:02:03.660Z,96.9
2018-04-11T03:07:03.971Z,96.3
2018-04-11T03:12:03.315Z,96.5
2018-04-11T03:17:03.468Z,96.3
2018-04-11T03:22:03.608Z,96.4
2018-04-11T03:27:03.692Z,96.4
2018-04-11T03:32:03.826Z,96.4
2018-04-11T03:37:04.076Z,96.3
2018-04-11T03:42:03.215Z,95.7
2018-04-11T03:47:03.329Z,95.7
2018-04-11T03:52:03.430Z,95.6
2018-04-11T03:57:03.514Z,95.7
2018-04-11T04:02:04.137Z,95.7
2018-04-11T04:07:03.918Z,95.7
2018-04-11T04:12:03.242Z,96.0
2018-04-11T04:17:17.464Z,95.7
2018-04-11T04:22:03.711Z,95.8
2018-04-11T04:27:04.094Z,95.4
2018-04-11T04:32:23.835Z,95.5
2018-04-11T04:37:03.223Z,95.4
2018-04-11T04:42:03.768Z,95.3
2018-04-11T04:47:03.419Z,95.3
2018-04-11T04:52:03.343Z,95.6
2018-04-11T04:57:03.487Z,95.4
2018-04-11T05:02:21.315Z,95.5
2018-04-11T05:07:03.143Z,95.4
2018-04-11T05:12:03.337Z,94.9
2018-04-11T05:17:20.394Z,94.9
2018-04-11T05:22:03.792Z,95.0
2018-04-11T05:27:03.910Z,95.0
2018-04-11T05:32:23.913Z,94.9
2018-04-11T05:37:03.154Z,93.3
2018-04-11T05:42:03.339Z,93.2
2018-04-11T05:47:21.623Z,93.0
2018-04-11T05:52:03.780Z,93.7
2018-04-11T05:57:03.876Z,93.6
2018-04-11T06:02:21.246Z,93.7
2018-04-11T06:07:03.487Z,93.0
2018-04-11T06:12:03.765Z,93.2
2018-04-11T06:17:21.691Z,92.9
2018-04-11T06:22:03.207Z,92.4
2018-04-11T06:27:03.388Z,92.4
2018-04-11T06:32:24.563Z,93.0
2018-04-11T06:37:03.860Z,93.0
2018-04-11T06:42:03.003Z,93.3
2018-04-11T06:47:29.467Z,92.3
2018-04-11T06:52:03.430Z,92.1
2018-04-11T06:57:03.659Z,92.1
2018-04-11T07:02:24.289Z,91.6
2018-04-11T07:07:03.266Z,91.4
2018-04-11T07:12:03.510Z,91.3
2018-04-11T07:17:24.272Z,92.3
2018-04-11T07:22:03.107Z,92.3
2018-04-11T07:27:03.287Z,92.0
2018-04-11T07:32:03.796Z,92.4
2018-04-11T07:37:03.773Z,92.0
2018-04-11T07:42:02.924Z,92.0
2018-04-11T07:47:26.663Z,91.6
2018-04-11T07:52:03.460Z,92.1
2018-04-11T07:57:03.645Z,92.1
2018-04-11T08:02:33.709Z,92.0
2018-04-11T08:07:03.338Z,91.9
2018-04-11T08:12:03.612Z,92.1
2018-04-11T08:17:33.548Z,92.0
2018-04-11T08:22:03.157Z,91.7
2018-04-11T08:27:03.384Z,91.8
2018-04-11T08:32:25.500Z,91.7
2018-04-11T08:37:03.755Z,91.8
2018-04-11T08:42:02.927Z,91.7
2018-04-11T08:47:31.193Z,91.6
2018-04-11T08:52:03.787Z,91.5
2018-04-11T08:57:03.057Z,92.0
2018-04-11T09:02:26.401Z,92.2
2018-04-11T09:07:03.359Z,92.4
2018-04-11T09:12:03.710Z,92.2
2018-04-11T09:17:26.181Z,91.8
2018-04-11T09:22:03.269Z,92.8
2018-04-11T09:27:03.490Z,93.1
2018-04-11T09:32:19.355Z,93.0
2018-04-11T09:37:03.935Z,93.3
2018-04-11T09:42:03.218Z,93.1
2018-04-11T09:47:20.215Z,93.6
2018-04-11T09:52:03.765Z,93.2
2018-04-11T09:57:03.974Z,93.8
2018-04-11T10:02:23.643Z,94.0
2018-04-11T10:07:03.971Z,94.0
2018-04-11T10:12:03.222Z,94.4
2018-04-11T10:17:23.550Z,94.4
2018-04-11T10:22:03.029Z,94.3
2018-04-11T10:27:03.291Z,94.3
2018-04-11T10:32:23.228Z,94.3
2018-04-11T10:37:03.697Z,94.2
2018-04-11T10:42:03.796Z,94.0
2018-04-11T10:47:24.450Z,94.0
2018-04-11T10:52:03.661Z,94.4
2018-04-11T10:57:03.861Z,94.5
2018-04-11T11:02:28.028Z,94.5
2018-04-11T11:07:03.676Z,94.9
2018-04-11T11:12:03.065Z,95.3
2018-04-11T11:17:28.576Z,95.4
2018-04-11T11:22:03.172Z,95.2
2018-04-11T11:27:03.413Z,95.8
2018-04-11T11:32:27.430Z,95.7
2018-04-11T11:37:03.494Z,95.9
2018-04-11T11:42:03.224Z,95.6
2018-04-11T11:47:25.327Z,96.4
2018-04-11T11:52:03.615Z,96.2
2018-04-11T11:57:03.704Z,95.7
2018-04-11T12:02:04.151Z,96.4
2018-04-11T12:07:03.337Z,96.3
2018-04-11T12:12:03.683Z,96.2
2018-04-11T12:17:22.981Z,96.5
2018-04-11T12:22:03.091Z,94.4
2018-04-11T12:27:03.341Z,94.5
2018-04-11T12:32:24.255Z,97.3
2018-04-11T12:37:03.878Z,96.8
2018-04-11T12:42:03.301Z,95.7
2018-04-11T12:47:03.767Z,95.7
2018-04-11T12:52:03.596Z,96.1
2018-04-11T12:57:03.822Z,96.1
2018-04-11T13:02:26.346Z,95.7
2018-04-11T13:07:03.781Z,95.4
2018-04-11T13:12:03.065Z,95.2
2018-04-11T13:17:24.056Z,95.5
2018-04-11T13:22:03.367Z,95.3
2018-04-11T13:27:03.649Z,95.2
2018-04-11T13:32:21.083Z,95.5
2018-04-11T13:37:03.888Z,95.5
2018-04-11T13:42:03.077Z,96.4
2018-04-11T13:47:28.076Z,95.8
2018-04-11T13:52:03.734Z,95.8
2018-04-11T13:57:02.989Z,95.2
2018-04-11T14:02:20.291Z,94.9
2018-04-11T14:07:03.751Z,94.8
2018-04-11T14:12:03.215Z,95.2
2018-04-11T14:17:24.056Z,94.8
2018-04-11T14:22:03.799Z,92.0
2018-04-11T14:27:04.023Z,92.0
2018-04-11T14:32:31.864Z,86.5
2018-04-11T14:37:03.318Z,86.5
2018-04-11T14:42:03.424Z,83.4
2018-04-11T14:47:26.420Z,73.9
2018-04-11T14:52:03.725Z,73.8
2018-04-11T14:57:03.844Z,70.6
2018-04-11T15:02:03.351Z,64.6
2018-04-11T15:07:03.816Z,62.7
2018-04-11T15:12:03.469Z,62.6
2018-04-11T15:17:21.483Z,62.5
2018-04-11T15:22:03.935Z,66.3
2018-04-11T15:27:03.048Z,64.4
2018-04-11T15:32:25.351Z,60.2
2018-04-11T15:37:03.402Z,60.2
2018-04-11T15:42:03.514Z,72.1
2018-04-11T15:47:24.950Z,72.1
2018-04-11T15:52:03.893Z,77.0
2018-04-11T15:57:03.012Z,77.0
2018-04-11T16:02:23.017Z,77.1
2018-04-11T16:07:03.579Z,77.2
2018-04-11T16:12:03.788Z,72.6
2018-04-11T16:17:23.001Z,72.5
2018-04-11T16:22:03.145Z,73.0
2018-04-11T16:27:03.246Z,72.4
2018-04-11T16:32:03.577Z,66.7
2018-04-11T16:37:03.678Z,68.9
2018-04-11T16:42:03.787Z,68.8
2018-04-11T16:47:21.349Z,68.0
2018-04-11T16:52:03.123Z,68.6
2018-04-11T16:57:03.251Z,71.5
2018-04-11T17:02:20.758Z,75.5
2018-04-11T17:07:03.732Z,78.2
2018-04-11T17:12:03.029Z,80.6
2018-04-11T17:17:21.325Z,82.8
2018-04-11T17:22:03.424Z,82.8
2018-04-11T17:27:03.584Z,85.0
2018-04-11T17:32:21.585Z,86.8
2018-04-11T17:37:03.921Z,87.9
2018-04-11T17:42:03.051Z,88.5
2018-04-11T17:47:24.051Z,88.5
2018-04-11T17:52:03.626Z,89.9
2018-04-11T17:57:03.768Z,89.9
2018-04-11T18:02:21.159Z,90.9
2018-04-11T18:07:03.699Z,91.1
2018-04-11T18:12:03.331Z,91.3
2018-04-11T18:17:26.920Z,91.4
2018-04-11T18:22:03.409Z,91.3
2018-04-11T18:27:03.526Z,91.4
2018-04-11T18:32:18.300Z,91.4
2018-04-11T18:37:03.280Z,91.4
2018-04-11T18:42:03.666Z,91.4
2018-04-11T18:47:12.112Z,91.4
2018-04-11T18:52:03.841Z,91.4
2018-04-11T18:57:03.133Z,91.3
2018-04-11T19:02:04.221Z,91.4
2018-04-11T19:07:03.454Z,91.4
2018-04-11T19:12:03.730Z,91.5
2018-04-11T19:17:03.809Z,91.6
2018-04-11T19:22:03.911Z,91.5
2018-04-11T19:27:03.108Z,91.5
2018-04-11T19:32:05.640Z,91.5
2018-04-11T19:37:03.444Z,91.4
2018-04-11T19:42:03.597Z,91.4
2018-04-11T19:47:06.897Z,91.4
2018-04-11T19:52:03.601Z,91.3
2018-04-11T19:57:03.765Z,91.2
2018-04-11T20:02:04.433Z,91.2
2018-04-11T20:07:03.302Z,91.0
2018-04-11T20:12:03.485Z,91.0
2018-04-11T20:17:03.842Z,91.0
2018-04-11T20:22:03.706Z,91.0
2018-04-11T20:27:03.753Z,91.0
2018-04-11T20:32:04.309Z,90.9
2018-04-11T20:37:03.010Z,90.9
2018-04-11T20:42:03.091Z,90.7
2018-04-11T20:47:03.254Z,90.7
2018-04-11T20:52:03.395Z,90.5
2018-04-11T20:57:03.442Z,90.4
2018-04-11T21:02:03.626Z,90.6
2018-04-11T21:07:03.840Z,90.3
2018-04-11T21:12:03.139Z,90.2
2018-04-11T21:17:03.700Z,90.1
2018-04-11T21:22:03.467Z,90.2
2018-04-11T21:27:03.487Z,90.0
2018-04-11T21:32:03.596Z,90.0
2018-04-11T21:37:03.657Z,90.0
2018-04-11T21:42:03.730Z,90.0
2018-04-11T21:47:03.968Z,90.0
2018-04-11T21:52:03.031Z,90.0
2018-04-11T21:57:03.204Z,90.0
2018-04-11T22:02:03.409Z,89.9
2018-04-11T22:07:03.683Z,89.8
2018-04-11T22:12:03.509Z,89.8
2018-04-11T22:22:03.677Z,89.4
2018-04-11T22:27:03.889Z,89.7
2018-04-11T22:32:03.569Z,89.9
2018-04-11T22:37:03.660Z,89.8
2018-04-11T22:42:03.183Z,89.8
2018-04-11T22:47:03.691Z,89.8
2018-04-11T22:52:03.188Z,89.8
2018-04-11T22:57:03.899Z,89.8
2018-04-11T23:02:03.785Z,89.9
2018-04-11T23:07:03.764Z,90.0
2018-04-11T23:12:03.089Z,90.0
2018-04-11T23:17:03.121Z,90.0
2018-04-11T23:22:03.521Z,89.9
2018-04-11T23:27:03.613Z,90.0
2018-04-11T23:32:03.582Z,89.9
2018-04-11T23:37:03.653Z,89.9
2018-04-11T23:42:03.227Z,90.0
2018-04-11T23:47:03.731Z,90.0
2018-04-11T23:52:03.076Z,90.2
2018-04-11T23:57:03.577Z,90.4
